sensor_id;sensor_type;location;lat;lon;timestamp;temperature;humidity
26107;DHT22;13866;50.748;12.630;2023-07-28T00:01:51;16.50;99.90
26107;DHT22;13866;50.748;12.630;2023-07-28T00:04:17;16.50;99.90
26107;DHT22;13866;50.748;12.630;2023-07-28T00:06:43;16.50;99.90
26107;DHT22;13866;50.748;12.630;2023-07-28T00:09:08;16.50;99.90
26107;DHT22;13866;50.748;12.630;2023-07-28T00:11:34;16.60;99.90
26107;DHT22;13866;50.748;12.630;2023-07-28T00:13:59;16.50;99.90
26107;DHT22;13866;50.748;12.630;2023-07-28T00:16:25;16.50;99.90
26107;DHT22;13866;50.748;12.630;2023-07-28T00:18:50;16.50;99.90
26107;DHT22;13866;50.748;12.630;2023-07-28T00:21:16;16.40;99.90
26107;DHT22;13866;50.748;12.630;2023-07-28T00:23:41;16.40;99.90
26107;DHT22;13866;50.748;12.630;2023-07-28T00:26:07;16.40;99.90
26107;DHT22;13866;50.748;12.630;2023-07-28T00:28:32;16.40;99.90
26107;DHT22;13866;50.748;12.630;2023-07-28T00:30:58;16.40;99.90
26107;DHT22;13866;50.748;12.630;2023-07-28T00:33:23;16.30;99.90
26107;DHT22;13866;50.748;12.630;2023-07-28T00:35:49;16.30;99.90
26107;DHT22;13866;50.748;12.630;2023-07-28T00:38:15;16.30;99.90
26107;DHT22;13866;50.748;12.630;2023-07-28T00:40:40;16.30;99.90
26107;DHT22;13866;50.748;12.630;2023-07-28T00:43:06;16.30;99.90
26107;DHT22;13866;50.748;12.630;2023-07-28T00:45:33;16.30;99.90
26107;DHT22;13866;50.748;12.630;2023-07-28T00:47:59;16.30;99.90
26107;DHT22;13866;50.748;12.630;2023-07-28T00:50:25;16.30;99.90
26107;DHT22;13866;50.748;12.630;2023-07-28T00:52:51;16.30;99.90
26107;DHT22;13866;50.748;12.630;2023-07-28T00:55:17;16.30;99.90
26107;DHT22;13866;50.748;12.630;2023-07-28T00:57:43;16.30;99.90
26107;DHT22;13866;50.748;12.630;2023-07-28T01:00:09;16.30;99.90
26107;DHT22;13866;50.748;12.630;2023-07-28T01:02:36;16.20;99.90
26107;DHT22;13866;50.748;12.630;2023-07-28T01:05:02;16.20;99.90
26107;DHT22;13866;50.748;12.630;2023-07-28T01:10:14;16.20;99.90
26107;DHT22;13866;50.748;12.630;2023-07-28T01:12:42;16.20;99.90
26107;DHT22;13866;50.748;12.630;2023-07-28T01:15:08;16.20;99.90
26107;DHT22;13866;50.748;12.630;2023-07-28T01:17:34;16.20;99.90
26107;DHT22;13866;50.748;12.630;2023-07-28T01:19:59;16.20;99.90
26107;DHT22;13866;50.748;12.630;2023-07-28T01:25:22;16.20;99.90
26107;DHT22;13866;50.748;12.630;2023-07-28T01:27:53;16.20;99.90
26107;DHT22;13866;50.748;12.630;2023-07-28T01:30:19;16.20;99.90
26107;DHT22;13866;50.748;12.630;2023-07-28T01:32:47;16.20;99.90
26107;DHT22;13866;50.748;12.630;2023-07-28T01:35:12;16.20;99.90
26107;DHT22;13866;50.748;12.630;2023-07-28T01:37:38;16.20;99.90
26107;DHT22;13866;50.748;12.630;2023-07-28T01:40:04;16.10;99.90
26107;DHT22;13866;50.748;12.630;2023-07-28T01:42:29;16.20;99.90
26107;DHT22;13866;50.748;12.630;2023-07-28T01:44:55;16.20;99.90
26107;DHT22;13866;50.748;12.630;2023-07-28T01:47:20;16.20;99.90
26107;DHT22;13866;50.748;12.630;2023-07-28T01:49:46;16.20;99.90
26107;DHT22;13866;50.748;12.630;2023-07-28T01:52:11;16.20;99.90
26107;DHT22;13866;50.748;12.630;2023-07-28T01:54:37;16.10;99.90
26107;DHT22;13866;50.748;12.630;2023-07-28T01:57:02;16.10;99.90
26107;DHT22;13866;50.748;12.630;2023-07-28T01:59:28;16.20;99.90
26107;DHT22;13866;50.748;12.630;2023-07-28T02:01:53;16.20;99.90
26107;DHT22;13866;50.748;12.630;2023-07-28T02:04:19;16.20;99.90
26107;DHT22;13866;50.748;12.630;2023-07-28T02:06:44;16.20;99.90
26107;DHT22;13866;50.748;12.630;2023-07-28T02:09:10;16.20;99.90
26107;DHT22;13866;50.748;12.630;2023-07-28T02:11:35;16.20;99.90
26107;DHT22;13866;50.748;12.630;2023-07-28T02:14:01;16.20;99.90
26107;DHT22;13866;50.748;12.630;2023-07-28T02:16:26;16.10;99.90
26107;DHT22;13866;50.748;12.630;2023-07-28T02:18:54;16.10;99.90
26107;DHT22;13866;50.748;12.630;2023-07-28T02:21:19;16.10;99.90
26107;DHT22;13866;50.748;12.630;2023-07-28T02:23:45;16.10;99.90
26107;DHT22;13866;50.748;12.630;2023-07-28T02:26:11;16.10;99.90
26107;DHT22;13866;50.748;12.630;2023-07-28T02:28:36;16.10;99.90
26107;DHT22;13866;50.748;12.630;2023-07-28T02:31:02;16.10;99.90
26107;DHT22;13866;50.748;12.630;2023-07-28T02:33:28;16.10;99.90
26107;DHT22;13866;50.748;12.630;2023-07-28T02:35:56;16.10;99.90
26107;DHT22;13866;50.748;12.630;2023-07-28T02:38:21;16.10;99.90
26107;DHT22;13866;50.748;12.630;2023-07-28T02:40:47;16.10;99.90
26107;DHT22;13866;50.748;12.630;2023-07-28T02:43:12;16.10;99.90
26107;DHT22;13866;50.748;12.630;2023-07-28T02:45:38;16.20;99.90
26107;DHT22;13866;50.748;12.630;2023-07-28T02:48:03;16.10;99.90
26107;DHT22;13866;50.748;12.630;2023-07-28T02:50:29;16.10;99.90
26107;DHT22;13866;50.748;12.630;2023-07-28T02:52:54;16.10;99.90
26107;DHT22;13866;50.748;12.630;2023-07-28T02:55:20;16.10;99.90
26107;DHT22;13866;50.748;12.630;2023-07-28T02:57:45;16.10;99.90
26107;DHT22;13866;50.748;12.630;2023-07-28T03:00:11;16.10;99.90
26107;DHT22;13866;50.748;12.630;2023-07-28T03:02:37;16.10;99.90
26107;DHT22;13866;50.748;12.630;2023-07-28T03:05:03;16.10;99.90
26107;DHT22;13866;50.748;12.630;2023-07-28T03:07:29;16.10;99.90
26107;DHT22;13866;50.748;12.630;2023-07-28T03:09:55;16.10;99.90
26107;DHT22;13866;50.748;12.630;2023-07-28T03:12:21;16.10;99.90
26107;DHT22;13866;50.748;12.630;2023-07-28T03:14:46;16.10;99.90
26107;DHT22;13866;50.748;12.630;2023-07-28T03:17:12;16.10;99.90
26107;DHT22;13866;50.748;12.630;2023-07-28T03:19:37;16.10;99.90
26107;DHT22;13866;50.748;12.630;2023-07-28T03:22:03;16.10;99.90
26107;DHT22;13866;50.748;12.630;2023-07-28T03:24:28;16.10;99.90
26107;DHT22;13866;50.748;12.630;2023-07-28T03:26:54;16.00;99.90
26107;DHT22;13866;50.748;12.630;2023-07-28T03:29:19;16.00;99.90
26107;DHT22;13866;50.748;12.630;2023-07-28T03:31:45;16.00;99.90
26107;DHT22;13866;50.748;12.630;2023-07-28T03:34:10;16.00;99.90
26107;DHT22;13866;50.748;12.630;2023-07-28T03:36:36;16.00;99.90
26107;DHT22;13866;50.748;12.630;2023-07-28T03:39:01;16.00;99.90
26107;DHT22;13866;50.748;12.630;2023-07-28T03:41:27;16.00;99.90
26107;DHT22;13866;50.748;12.630;2023-07-28T03:43:52;16.10;99.90
26107;DHT22;13866;50.748;12.630;2023-07-28T03:46:18;16.10;99.90
26107;DHT22;13866;50.748;12.630;2023-07-28T03:48:44;16.00;99.90
26107;DHT22;13866;50.748;12.630;2023-07-28T03:51:09;16.00;99.90
26107;DHT22;13866;50.748;12.630;2023-07-28T03:53:34;16.00;99.90
26107;DHT22;13866;50.748;12.630;2023-07-28T03:56:01;16.00;99.90
26107;DHT22;13866;50.748;12.630;2023-07-28T03:58:27;16.00;99.90
26107;DHT22;13866;50.748;12.630;2023-07-28T04:00:53;16.00;99.90
26107;DHT22;13866;50.748;12.630;2023-07-28T04:03:19;16.00;99.90
26107;DHT22;13866;50.748;12.630;2023-07-28T04:05:44;16.00;99.90
26107;DHT22;13866;50.748;12.630;2023-07-28T04:08:10;16.00;99.90
26107;DHT22;13866;50.748;12.630;2023-07-28T04:10:35;16.00;99.90
26107;DHT22;13866;50.748;12.630;2023-07-28T04:13:01;16.00;99.90
26107;DHT22;13866;50.748;12.630;2023-07-28T04:15:26;16.00;99.90
26107;DHT22;13866;50.748;12.630;2023-07-28T04:17:52;16.00;99.90
26107;DHT22;13866;50.748;12.630;2023-07-28T04:20:18;16.10;99.90
26107;DHT22;13866;50.748;12.630;2023-07-28T04:22:43;16.10;99.90
26107;DHT22;13866;50.748;12.630;2023-07-28T04:25:09;16.00;99.90
26107;DHT22;13866;50.748;12.630;2023-07-28T04:27:34;16.10;99.90
26107;DHT22;13866;50.748;12.630;2023-07-28T04:30:00;16.10;99.90
26107;DHT22;13866;50.748;12.630;2023-07-28T04:32:26;16.10;99.90
26107;DHT22;13866;50.748;12.630;2023-07-28T04:34:55;16.10;99.90
26107;DHT22;13866;50.748;12.630;2023-07-28T04:37:21;16.10;99.90
26107;DHT22;13866;50.748;12.630;2023-07-28T04:39:46;16.10;99.90
26107;DHT22;13866;50.748;12.630;2023-07-28T04:42:12;16.10;99.90
26107;DHT22;13866;50.748;12.630;2023-07-28T04:44:38;16.20;99.90
26107;DHT22;13866;50.748;12.630;2023-07-28T04:47:05;16.20;99.90
26107;DHT22;13866;50.748;12.630;2023-07-28T04:49:30;16.20;99.90
26107;DHT22;13866;50.748;12.630;2023-07-28T04:51:56;16.30;99.90
26107;DHT22;13866;50.748;12.630;2023-07-28T04:54:21;16.30;99.90
26107;DHT22;13866;50.748;12.630;2023-07-28T04:56:47;16.30;99.90
26107;DHT22;13866;50.748;12.630;2023-07-28T04:59:15;16.30;99.90
26107;DHT22;13866;50.748;12.630;2023-07-28T05:01:40;16.30;99.90
26107;DHT22;13866;50.748;12.630;2023-07-28T05:04:06;16.30;99.90
26107;DHT22;13866;50.748;12.630;2023-07-28T05:06:31;16.30;99.90
26107;DHT22;13866;50.748;12.630;2023-07-28T05:08:57;16.30;99.90
26107;DHT22;13866;50.748;12.630;2023-07-28T05:11:23;16.30;99.90
26107;DHT22;13866;50.748;12.630;2023-07-28T05:13:50;16.30;99.90
26107;DHT22;13866;50.748;12.630;2023-07-28T05:16:25;16.30;99.90
26107;DHT22;13866;50.748;12.630;2023-07-28T05:19:08;16.30;99.90
26107;DHT22;13866;50.748;12.630;2023-07-28T05:21:33;16.30;99.90
26107;DHT22;13866;50.748;12.630;2023-07-28T05:23:59;16.30;99.90
26107;DHT22;13866;50.748;12.630;2023-07-28T05:26:24;16.30;99.90
26107;DHT22;13866;50.748;12.630;2023-07-28T05:28:50;16.30;99.90
26107;DHT22;13866;50.748;12.630;2023-07-28T05:31:16;16.30;99.90
26107;DHT22;13866;50.748;12.630;2023-07-28T05:33:42;16.40;99.90
26107;DHT22;13866;50.748;12.630;2023-07-28T05:36:07;16.40;99.90
26107;DHT22;13866;50.748;12.630;2023-07-28T05:38:33;16.40;99.90
26107;DHT22;13866;50.748;12.630;2023-07-28T05:41:00;16.40;99.90
26107;DHT22;13866;50.748;12.630;2023-07-28T05:43:31;16.40;99.90
26107;DHT22;13866;50.748;12.630;2023-07-28T05:45:58;16.50;99.90
26107;DHT22;13866;50.748;12.630;2023-07-28T05:48:24;16.50;99.90
26107;DHT22;13866;50.748;12.630;2023-07-28T05:50:49;16.50;99.90
26107;DHT22;13866;50.748;12.630;2023-07-28T05:53:16;16.60;99.90
26107;DHT22;13866;50.748;12.630;2023-07-28T05:55:42;16.60;99.90
26107;DHT22;13866;50.748;12.630;2023-07-28T05:58:07;16.60;99.90
26107;DHT22;13866;50.748;12.630;2023-07-28T06:00:35;16.60;99.90
26107;DHT22;13866;50.748;12.630;2023-07-28T06:03:00;16.60;99.90
26107;DHT22;13866;50.748;12.630;2023-07-28T06:05:26;16.70;99.90
26107;DHT22;13866;50.748;12.630;2023-07-28T06:07:52;16.80;99.90
26107;DHT22;13866;50.748;12.630;2023-07-28T06:10:17;17.00;99.90
26107;DHT22;13866;50.748;12.630;2023-07-28T06:12:43;17.10;99.90
26107;DHT22;13866;50.748;12.630;2023-07-28T06:15:09;17.30;99.90
26107;DHT22;13866;50.748;12.630;2023-07-28T06:17:34;17.60;99.90
26107;DHT22;13866;50.748;12.630;2023-07-28T06:20:00;17.70;99.90
26107;DHT22;13866;50.748;12.630;2023-07-28T06:22:25;17.60;99.90
26107;DHT22;13866;50.748;12.630;2023-07-28T06:24:51;17.60;99.90
26107;DHT22;13866;50.748;12.630;2023-07-28T06:27:16;17.60;99.90
26107;DHT22;13866;50.748;12.630;2023-07-28T06:29:42;17.80;99.90
26107;DHT22;13866;50.748;12.630;2023-07-28T06:32:07;17.90;99.90
26107;DHT22;13866;50.748;12.630;2023-07-28T06:34:33;17.90;99.90
26107;DHT22;13866;50.748;12.630;2023-07-28T06:36:59;18.00;99.90
26107;DHT22;13866;50.748;12.630;2023-07-28T06:39:24;18.00;99.90
26107;DHT22;13866;50.748;12.630;2023-07-28T06:41:50;17.80;99.90
26107;DHT22;13866;50.748;12.630;2023-07-28T06:44:16;17.80;99.90
26107;DHT22;13866;50.748;12.630;2023-07-28T06:46:41;17.80;99.90
26107;DHT22;13866;50.748;12.630;2023-07-28T06:49:07;17.80;99.90
26107;DHT22;13866;50.748;12.630;2023-07-28T06:51:33;17.90;99.90
26107;DHT22;13866;50.748;12.630;2023-07-28T06:53:59;17.80;99.90
26107;DHT22;13866;50.748;12.630;2023-07-28T06:56:24;17.80;99.90
26107;DHT22;13866;50.748;12.630;2023-07-28T06:58:50;17.70;99.90
26107;DHT22;13866;50.748;12.630;2023-07-28T07:01:16;17.70;99.90
26107;DHT22;13866;50.748;12.630;2023-07-28T07:03:43;17.80;99.90
26107;DHT22;13866;50.748;12.630;2023-07-28T07:06:08;17.80;99.90
26107;DHT22;13866;50.748;12.630;2023-07-28T07:08:34;17.80;99.90
26107;DHT22;13866;50.748;12.630;2023-07-28T07:10:59;17.80;99.90
26107;DHT22;13866;50.748;12.630;2023-07-28T07:13:25;17.80;99.90
26107;DHT22;13866;50.748;12.630;2023-07-28T07:15:51;17.80;99.90
26107;DHT22;13866;50.748;12.630;2023-07-28T07:18:17;17.70;99.90
26107;DHT22;13866;50.748;12.630;2023-07-28T07:20:42;17.80;99.90
26107;DHT22;13866;50.748;12.630;2023-07-28T07:23:08;17.70;99.90
26107;DHT22;13866;50.748;12.630;2023-07-28T07:25:33;17.80;99.90
26107;DHT22;13866;50.748;12.630;2023-07-28T07:27:59;17.70;99.90
26107;DHT22;13866;50.748;12.630;2023-07-28T07:30:25;17.80;99.90
26107;DHT22;13866;50.748;12.630;2023-07-28T07:32:50;17.80;99.90
26107;DHT22;13866;50.748;12.630;2023-07-28T07:35:16;17.90;99.90
26107;DHT22;13866;50.748;12.630;2023-07-28T07:37:41;18.10;99.90
26107;DHT22;13866;50.748;12.630;2023-07-28T07:40:07;18.20;99.90
26107;DHT22;13866;50.748;12.630;2023-07-28T07:42:47;18.30;99.90
26107;DHT22;13866;50.748;12.630;2023-07-28T07:45:14;18.30;99.90
26107;DHT22;13866;50.748;12.630;2023-07-28T07:47:40;18.40;99.90
26107;DHT22;13866;50.748;12.630;2023-07-28T07:50:09;18.50;99.90
26107;DHT22;13866;50.748;12.630;2023-07-28T07:52:36;18.50;99.90
26107;DHT22;13866;50.748;12.630;2023-07-28T07:55:02;18.40;99.90
26107;DHT22;13866;50.748;12.630;2023-07-28T07:57:29;18.50;99.90
26107;DHT22;13866;50.748;12.630;2023-07-28T07:59:54;18.50;99.90
26107;DHT22;13866;50.748;12.630;2023-07-28T08:02:20;18.60;99.90
26107;DHT22;13866;50.748;12.630;2023-07-28T08:04:46;18.50;99.90
26107;DHT22;13866;50.748;12.630;2023-07-28T08:07:11;18.40;99.90
26107;DHT22;13866;50.748;12.630;2023-07-28T08:09:37;18.40;99.90
26107;DHT22;13866;50.748;12.630;2023-07-28T08:12:04;18.70;99.90
26107;DHT22;13866;50.748;12.630;2023-07-28T08:14:30;18.90;99.90
26107;DHT22;13866;50.748;12.630;2023-07-28T08:16:55;19.10;99.90
26107;DHT22;13866;50.748;12.630;2023-07-28T08:19:21;19.20;99.90
26107;DHT22;13866;50.748;12.630;2023-07-28T08:21:46;19.10;99.90
26107;DHT22;13866;50.748;12.630;2023-07-28T08:24:12;19.00;99.90
26107;DHT22;13866;50.748;12.630;2023-07-28T08:26:38;18.80;99.90
26107;DHT22;13866;50.748;12.630;2023-07-28T08:29:03;18.70;99.90
26107;DHT22;13866;50.748;12.630;2023-07-28T08:31:29;18.80;99.90
26107;DHT22;13866;50.748;12.630;2023-07-28T08:33:54;18.80;99.90
26107;DHT22;13866;50.748;12.630;2023-07-28T08:36:20;18.90;99.90
26107;DHT22;13866;50.748;12.630;2023-07-28T08:38:45;18.90;99.90
26107;DHT22;13866;50.748;12.630;2023-07-28T08:41:12;19.00;99.90
26107;DHT22;13866;50.748;12.630;2023-07-28T08:43:38;19.00;99.90
26107;DHT22;13866;50.748;12.630;2023-07-28T08:46:04;19.00;99.90
26107;DHT22;13866;50.748;12.630;2023-07-28T08:48:29;19.00;99.90
26107;DHT22;13866;50.748;12.630;2023-07-28T08:50:55;19.10;99.90
26107;DHT22;13866;50.748;12.630;2023-07-28T08:53:20;19.20;99.90
26107;DHT22;13866;50.748;12.630;2023-07-28T08:55:47;19.30;99.90
26107;DHT22;13866;50.748;12.630;2023-07-28T08:58:14;19.20;99.90
26107;DHT22;13866;50.748;12.630;2023-07-28T09:00:41;19.30;99.90
26107;DHT22;13866;50.748;12.630;2023-07-28T09:03:08;19.30;99.90
26107;DHT22;13866;50.748;12.630;2023-07-28T09:05:34;19.50;99.90
26107;DHT22;13866;50.748;12.630;2023-07-28T09:07:59;19.50;99.90
26107;DHT22;13866;50.748;12.630;2023-07-28T09:10:25;19.50;99.90
26107;DHT22;13866;50.748;12.630;2023-07-28T09:12:51;19.40;99.90
26107;DHT22;13866;50.748;12.630;2023-07-28T09:15:17;19.40;99.90
26107;DHT22;13866;50.748;12.630;2023-07-28T09:17:44;19.40;99.90
26107;DHT22;13866;50.748;12.630;2023-07-28T09:20:15;19.60;99.90
26107;DHT22;13866;50.748;12.630;2023-07-28T09:22:44;19.70;99.90
26107;DHT22;13866;50.748;12.630;2023-07-28T09:25:15;19.90;99.90
26107;DHT22;13866;50.748;12.630;2023-07-28T09:27:41;20.00;99.90
26107;DHT22;13866;50.748;12.630;2023-07-28T09:30:13;20.30;99.90
26107;DHT22;13866;50.748;12.630;2023-07-28T09:32:47;20.40;99.90
26107;DHT22;13866;50.748;12.630;2023-07-28T09:35:14;20.50;99.90
26107;DHT22;13866;50.748;12.630;2023-07-28T09:37:47;20.50;99.90
26107;DHT22;13866;50.748;12.630;2023-07-28T09:40:17;20.50;99.90
26107;DHT22;13866;50.748;12.630;2023-07-28T09:42:44;20.50;99.90
26107;DHT22;13866;50.748;12.630;2023-07-28T09:45:15;20.50;99.90
26107;DHT22;13866;50.748;12.630;2023-07-28T09:47:44;20.50;99.90
26107;DHT22;13866;50.748;12.630;2023-07-28T09:50:10;20.40;99.90
26107;DHT22;13866;50.748;12.630;2023-07-28T09:52:43;20.20;99.90
26107;DHT22;13866;50.748;12.630;2023-07-28T09:55:10;20.00;99.90
26107;DHT22;13866;50.748;12.630;2023-07-28T09:57:46;19.90;99.90
26107;DHT22;13866;50.748;12.630;2023-07-28T10:00:15;19.90;99.90
26107;DHT22;13866;50.748;12.630;2023-07-28T10:02:41;19.90;99.90
26107;DHT22;13866;50.748;12.630;2023-07-28T10:05:07;19.90;99.90
26107;DHT22;13866;50.748;12.630;2023-07-28T10:07:38;20.00;99.90
26107;DHT22;13866;50.748;12.630;2023-07-28T10:10:06;20.00;99.90
26107;DHT22;13866;50.748;12.630;2023-07-28T10:12:51;20.10;99.90
26107;DHT22;13866;50.748;12.630;2023-07-28T10:15:19;20.10;99.90
26107;DHT22;13866;50.748;12.630;2023-07-28T10:17:53;20.20;99.90
26107;DHT22;13866;50.748;12.630;2023-07-28T10:23:17;20.50;99.90
26107;DHT22;13866;50.748;12.630;2023-07-28T10:25:44;20.60;99.90
26107;DHT22;13866;50.748;12.630;2023-07-28T10:28:29;20.60;99.90
26107;DHT22;13866;50.748;12.630;2023-07-28T10:30:59;20.70;99.90
26107;DHT22;13866;50.748;12.630;2023-07-28T10:36:33;20.60;99.90
26107;DHT22;13866;50.748;12.630;2023-07-28T10:39:13;20.60;99.90
26107;DHT22;13866;50.748;12.630;2023-07-28T10:42:00;20.60;99.90
26107;DHT22;13866;50.748;12.630;2023-07-28T10:44:26;20.70;99.90
26107;DHT22;13866;50.748;12.630;2023-07-28T10:46:52;20.90;99.90
26107;DHT22;13866;50.748;12.630;2023-07-28T10:49:17;21.00;99.90
26107;DHT22;13866;50.748;12.630;2023-07-28T10:51:43;21.00;99.90
26107;DHT22;13866;50.748;12.630;2023-07-28T10:54:08;20.90;99.90
26107;DHT22;13866;50.748;12.630;2023-07-28T10:56:34;20.70;99.90
26107;DHT22;13866;50.748;12.630;2023-07-28T10:59:03;20.70;99.90
26107;DHT22;13866;50.748;12.630;2023-07-28T11:01:32;20.70;99.90
26107;DHT22;13866;50.748;12.630;2023-07-28T11:04:15;20.90;99.90
26107;DHT22;13866;50.748;12.630;2023-07-28T11:06:43;21.10;99.90
26107;DHT22;13866;50.748;12.630;2023-07-28T11:09:09;21.10;99.90
26107;DHT22;13866;50.748;12.630;2023-07-28T11:11:39;21.10;99.90
26107;DHT22;13866;50.748;12.630;2023-07-28T11:14:09;21.00;99.90
26107;DHT22;13866;50.748;12.630;2023-07-28T11:16:41;21.00;99.90
26107;DHT22;13866;50.748;12.630;2023-07-28T11:19:12;20.90;99.90
26107;DHT22;13866;50.748;12.630;2023-07-28T11:21:42;20.90;99.90
26107;DHT22;13866;50.748;12.630;2023-07-28T11:24:08;20.90;99.90
26107;DHT22;13866;50.748;12.630;2023-07-28T11:26:38;21.00;99.90
26107;DHT22;13866;50.748;12.630;2023-07-28T11:29:04;21.10;99.90
26107;DHT22;13866;50.748;12.630;2023-07-28T11:31:30;21.40;99.90
26107;DHT22;13866;50.748;12.630;2023-07-28T11:33:56;21.50;99.90
26107;DHT22;13866;50.748;12.630;2023-07-28T11:36:26;21.70;99.90
26107;DHT22;13866;50.748;12.630;2023-07-28T11:38:53;21.90;99.90
26107;DHT22;13866;50.748;12.630;2023-07-28T11:41:20;22.00;99.90
26107;DHT22;13866;50.748;12.630;2023-07-28T11:43:48;22.10;99.90
26107;DHT22;13866;50.748;12.630;2023-07-28T11:46:37;22.00;99.90
26107;DHT22;13866;50.748;12.630;2023-07-28T11:49:30;21.90;99.90
26107;DHT22;13866;50.748;12.630;2023-07-28T11:51:56;21.80;99.90
26107;DHT22;13866;50.748;12.630;2023-07-28T11:54:25;21.90;99.90
26107;DHT22;13866;50.748;12.630;2023-07-28T11:56:55;22.00;99.90
26107;DHT22;13866;50.748;12.630;2023-07-28T11:59:21;22.10;99.90
26107;DHT22;13866;50.748;12.630;2023-07-28T12:02:07;22.40;99.90
26107;DHT22;13866;50.748;12.630;2023-07-28T12:04:36;22.80;99.90
26107;DHT22;13866;50.748;12.630;2023-07-28T12:07:05;22.70;99.90
26107;DHT22;13866;50.748;12.630;2023-07-28T12:09:52;22.80;99.90
26107;DHT22;13866;50.748;12.630;2023-07-28T12:12:20;22.90;99.90
26107;DHT22;13866;50.748;12.630;2023-07-28T12:14:46;22.90;99.90
26107;DHT22;13866;50.748;12.630;2023-07-28T12:17:17;23.00;99.90
26107;DHT22;13866;50.748;12.630;2023-07-28T12:20:02;23.20;99.90
26107;DHT22;13866;50.748;12.630;2023-07-28T12:22:36;23.30;99.90
26107;DHT22;13866;50.748;12.630;2023-07-28T12:25:02;23.10;99.90
26107;DHT22;13866;50.748;12.630;2023-07-28T12:27:27;23.10;99.90
26107;DHT22;13866;50.748;12.630;2023-07-28T12:29:53;23.30;99.90
26107;DHT22;13866;50.748;12.630;2023-07-28T12:32:19;23.40;99.90
26107;DHT22;13866;50.748;12.630;2023-07-28T12:34:44;23.40;99.90
26107;DHT22;13866;50.748;12.630;2023-07-28T12:37:10;23.80;99.90
26107;DHT22;13866;50.748;12.630;2023-07-28T12:39:37;24.00;99.90
26107;DHT22;13866;50.748;12.630;2023-07-28T12:42:07;24.10;99.90
26107;DHT22;13866;50.748;12.630;2023-07-28T12:44:33;24.20;99.90
26107;DHT22;13866;50.748;12.630;2023-07-28T12:46:58;24.30;99.90
26107;DHT22;13866;50.748;12.630;2023-07-28T12:49:24;24.20;99.90
26107;DHT22;13866;50.748;12.630;2023-07-28T12:51:49;24.20;99.90
26107;DHT22;13866;50.748;12.630;2023-07-28T12:54:15;24.20;99.90
26107;DHT22;13866;50.748;12.630;2023-07-28T12:56:40;24.70;99.90
26107;DHT22;13866;50.748;12.630;2023-07-28T12:59:06;24.50;99.90
26107;DHT22;13866;50.748;12.630;2023-07-28T13:01:31;25.00;98.60
26107;DHT22;13866;50.748;12.630;2023-07-28T13:03:57;25.40;97.90
26107;DHT22;13866;50.748;12.630;2023-07-28T13:06:22;25.40;94.60
26107;DHT22;13866;50.748;12.630;2023-07-28T13:08:48;25.60;93.00
26107;DHT22;13866;50.748;12.630;2023-07-28T13:11:13;25.40;93.50
26107;DHT22;13866;50.748;12.630;2023-07-28T13:13:40;25.50;94.00
26107;DHT22;13866;50.748;12.630;2023-07-28T13:16:06;25.40;93.80
26107;DHT22;13866;50.748;12.630;2023-07-28T13:18:32;25.20;98.50
26107;DHT22;13866;50.748;12.630;2023-07-28T13:20:58;25.00;99.00
26107;DHT22;13866;50.748;12.630;2023-07-28T13:23:24;24.80;97.90
26107;DHT22;13866;50.748;12.630;2023-07-28T13:25:50;24.40;99.90
26107;DHT22;13866;50.748;12.630;2023-07-28T13:28:16;24.10;99.90
26107;DHT22;13866;50.748;12.630;2023-07-28T13:30:41;24.10;99.90
26107;DHT22;13866;50.748;12.630;2023-07-28T13:33:07;24.10;99.90
26107;DHT22;13866;50.748;12.630;2023-07-28T13:35:32;24.00;99.90
26107;DHT22;13866;50.748;12.630;2023-07-28T13:37:58;24.30;99.90
26107;DHT22;13866;50.748;12.630;2023-07-28T13:40:23;24.50;99.90
26107;DHT22;13866;50.748;12.630;2023-07-28T13:42:49;24.50;99.90
26107;DHT22;13866;50.748;12.630;2023-07-28T13:45:15;24.50;99.90
26107;DHT22;13866;50.748;12.630;2023-07-28T13:47:40;25.10;99.90
26107;DHT22;13866;50.748;12.630;2023-07-28T13:50:06;25.40;98.60
26107;DHT22;13866;50.748;12.630;2023-07-28T13:52:32;25.40;95.20
26107;DHT22;13866;50.748;12.630;2023-07-28T13:54:58;25.60;94.20
26107;DHT22;13866;50.748;12.630;2023-07-28T13:57:23;25.40;93.40
26107;DHT22;13866;50.748;12.630;2023-07-28T13:59:49;24.70;95.30
26107;DHT22;13866;50.748;12.630;2023-07-28T14:02:17;24.40;96.00
26107;DHT22;13866;50.748;12.630;2023-07-28T14:04:43;24.20;98.30
26107;DHT22;13866;50.748;12.630;2023-07-28T14:07:10;24.10;99.20
26107;DHT22;13866;50.748;12.630;2023-07-28T14:09:35;24.00;99.90
26107;DHT22;13866;50.748;12.630;2023-07-28T14:12:01;24.10;99.90
26107;DHT22;13866;50.748;12.630;2023-07-28T14:14:28;24.30;99.60
26107;DHT22;13866;50.748;12.630;2023-07-28T14:16:53;24.40;96.40
26107;DHT22;13866;50.748;12.630;2023-07-28T14:19:18;24.50;97.70
26107;DHT22;13866;50.748;12.630;2023-07-28T14:21:44;24.40;97.20
26107;DHT22;13866;50.748;12.630;2023-07-28T14:24:09;24.50;97.90
26107;DHT22;13866;50.748;12.630;2023-07-28T14:26:35;24.40;96.30
26107;DHT22;13866;50.748;12.630;2023-07-28T14:29:00;24.50;98.50
26107;DHT22;13866;50.748;12.630;2023-07-28T14:31:26;24.70;97.00
26107;DHT22;13866;50.748;12.630;2023-07-28T14:33:51;24.80;96.20
26107;DHT22;13866;50.748;12.630;2023-07-28T14:36:17;24.80;96.10
26107;DHT22;13866;50.748;12.630;2023-07-28T14:38:42;24.80;96.80
26107;DHT22;13866;50.748;12.630;2023-07-28T14:41:08;24.60;96.70
26107;DHT22;13866;50.748;12.630;2023-07-28T14:43:34;24.50;97.40
26107;DHT22;13866;50.748;12.630;2023-07-28T14:46:00;24.50;99.90
26107;DHT22;13866;50.748;12.630;2023-07-28T14:48:25;24.50;99.90
26107;DHT22;13866;50.748;12.630;2023-07-28T14:50:51;24.30;99.90
26107;DHT22;13866;50.748;12.630;2023-07-28T14:53:38;23.70;99.90
26107;DHT22;13866;50.748;12.630;2023-07-28T14:56:05;23.40;99.90
26107;DHT22;13866;50.748;12.630;2023-07-28T14:58:31;23.40;99.90
26107;DHT22;13866;50.748;12.630;2023-07-28T15:00:57;23.50;99.90
26107;DHT22;13866;50.748;12.630;2023-07-28T15:03:26;23.60;99.90
26107;DHT22;13866;50.748;12.630;2023-07-28T15:05:53;23.60;99.90
26107;DHT22;13866;50.748;12.630;2023-07-28T15:08:19;23.60;99.90
26107;DHT22;13866;50.748;12.630;2023-07-28T15:10:44;23.60;99.90
26107;DHT22;13866;50.748;12.630;2023-07-28T15:13:10;23.60;99.90
26107;DHT22;13866;50.748;12.630;2023-07-28T15:15:35;23.80;99.90
26107;DHT22;13866;50.748;12.630;2023-07-28T15:18:01;24.10;99.90
26107;DHT22;13866;50.748;12.630;2023-07-28T15:20:26;24.20;99.90
26107;DHT22;13866;50.748;12.630;2023-07-28T15:22:52;24.20;99.90
26107;DHT22;13866;50.748;12.630;2023-07-28T15:25:17;24.30;99.90